Quinn, South Dakota
Current Conditions -  °F | °C
As of 5:55 AM on Thursday 27 Nov 2014 (Local Time) from KPHP Reporting Station
Overcast Overcast  
Wind Chill:   Ceiling: 2800
Heat Index: 17°   Visibility: 10mi
Dew Point: 11°   Wind: 14mph
Humidity: 77%   Direction: 110°ESE
Pressure: 30.25"   Gusts: NA
Location:  43.99°N, 102.13°W
Report Text: KPHP 271255Z AUTO 11012KT 10SM OVC028 M08/M12 A3025 RMK AO2 SLP273 T10831117
Loading
Personal Weather Stations






























Interactive Weather Map New forecast layout! Learn more

10-Day Weather Forecast

Advertisements
Track Severe Weather on mobile